createdAt,value
2023-03-06T00:00:40.505Z,100045.22
2023-03-06T00:03:07.406Z,100032.34
2023-03-06T00:05:33.990Z,100013.16
2023-03-06T00:08:00.469Z,100040.47
2023-03-06T00:10:29.445Z,100051.28
2023-03-06T00:12:58.985Z,100048.50
2023-03-06T00:15:29.309Z,100033.66
2023-03-06T00:17:56.594Z,100056.19
2023-03-06T00:20:24.002Z,100048.56
2023-03-06T00:22:50.531Z,100011.28
2023-03-06T00:25:19.652Z,100041.59
2023-03-06T00:27:46.681Z,100018.00
2023-03-06T00:30:16.264Z,99981.53
2023-03-06T00:32:43.753Z,100002.47
2023-03-06T00:35:11.146Z,100031.72
2023-03-06T00:37:37.935Z,100029.75
2023-03-06T00:40:06.329Z,100026.22
2023-03-06T00:42:32.962Z,100009.44
2023-03-06T00:44:59.519Z,100013.94
2023-03-06T00:47:26.121Z,100018.91
2023-03-06T00:49:52.824Z,99978.13
2023-03-06T00:52:19.549Z,100006.41
2023-03-06T00:54:46.112Z,100011.63
2023-03-06T00:57:12.729Z,100003.16
2023-03-06T00:59:39.286Z,100004.59
2023-03-06T01:02:05.912Z,100000.88
2023-03-06T01:04:32.880Z,99998.69
2023-03-06T01:06:59.667Z,99993.72
2023-03-06T01:09:26.481Z,99966.75
2023-03-06T01:11:53.189Z,99963.34
2023-03-06T01:14:20.158Z,99947.19
2023-03-06T01:16:47.640Z,99982.25
2023-03-06T01:19:14.879Z,99979.28
2023-03-06T01:21:41.456Z,99962.25
2023-03-06T01:24:08.451Z,99961.72
2023-03-06T01:26:35.082Z,99983.94
2023-03-06T01:29:01.907Z,99970.91
2023-03-06T01:31:28.513Z,99934.59
2023-03-06T01:33:55.268Z,99973.41
2023-03-06T01:36:21.917Z,99960.56
2023-03-06T01:38:48.485Z,99916.97
2023-03-06T01:41:16.046Z,99917.41
2023-03-06T01:43:45.225Z,99953.09
2023-03-06T01:46:17.710Z,99958.47
2023-03-06T01:48:44.941Z,99923.63
2023-03-06T01:51:12.352Z,99950.53
2023-03-06T01:53:39.968Z,99935.66
2023-03-06T01:56:07.140Z,99932.88
2023-03-06T01:58:34.034Z,99948.34
2023-03-06T02:01:00.593Z,99946.88
2023-03-06T02:03:31.184Z,99938.16
2023-03-06T02:05:58.941Z,99945.44
2023-03-06T02:08:26.852Z,99937.28
2023-03-06T02:11:05.872Z,99945.16
2023-03-06T02:13:32.649Z,99941.28
2023-03-06T02:15:59.472Z,99929.41
2023-03-06T02:18:26.241Z,99944.56
2023-03-06T02:20:55.240Z,99935.50
2023-03-06T02:23:48.402Z,99914.22
2023-03-06T02:26:15.534Z,99939.84
2023-03-06T02:28:44.473Z,99909.06
2023-03-06T02:31:22.176Z,99911.06
2023-03-06T02:34:24.170Z,99926.88
2023-03-06T02:36:53.489Z,99883.34
2023-03-06T02:39:22.655Z,99884.34
2023-03-06T02:41:49.271Z,99904.03
2023-03-06T02:44:15.892Z,99878.22
2023-03-06T02:46:42.706Z,99858.47
2023-03-06T02:49:09.356Z,99851.44
2023-03-06T02:51:36.192Z,99893.69
2023-03-06T02:54:02.745Z,99892.06
2023-03-06T02:56:29.421Z,99890.22
2023-03-06T02:58:56.136Z,99898.25
2023-03-06T03:01:23.086Z,99910.88
2023-03-06T03:03:49.921Z,99871.16
2023-03-06T03:06:16.582Z,99864.28
2023-03-06T03:08:43.598Z,99795.88
2023-03-06T03:11:10.474Z,99875.66
2023-03-06T03:13:37.670Z,99868.97
2023-03-06T03:16:07.191Z,99863.06
2023-03-06T03:18:34.238Z,99859.69
2023-03-06T03:21:00.805Z,99833.44
2023-03-06T03:23:27.819Z,99853.00
2023-03-06T03:25:54.451Z,99847.66
2023-03-06T03:28:21.108Z,99867.81
2023-03-06T03:30:47.717Z,99859.53
2023-03-06T03:33:14.262Z,99840.56
2023-03-06T03:35:41.232Z,99855.44
2023-03-06T03:38:07.936Z,99854.13
2023-03-06T03:40:34.996Z,99856.41
2023-03-06T03:43:01.645Z,99868.59
2023-03-06T03:45:28.455Z,99820.16
2023-03-06T03:47:54.986Z,99840.06
2023-03-06T03:50:21.526Z,99864.94
2023-03-06T03:52:48.080Z,99826.34
2023-03-06T03:55:15.086Z,99817.59
2023-03-06T03:57:43.149Z,99856.72
2023-03-06T04:00:14.830Z,99808.91
2023-03-06T04:02:42.713Z,99840.25
2023-03-06T04:05:10.500Z,99810.94
2023-03-06T04:07:37.593Z,99845.88
2023-03-06T04:10:05.376Z,99839.19
2023-03-06T04:12:32.025Z,99838.72
2023-03-06T04:14:59.110Z,99840.13
2023-03-06T04:17:26.260Z,99845.75
2023-03-06T04:19:52.886Z,99839.44
2023-03-06T04:22:19.798Z,99797.66
2023-03-06T04:24:49.602Z,99817.56
2023-03-06T04:27:16.168Z,99829.56
2023-03-06T04:29:44.642Z,99835.38
2023-03-06T04:32:11.213Z,99807.44
2023-03-06T04:34:38.289Z,99810.06
2023-03-06T04:37:05.286Z,99801.03
2023-03-06T04:39:31.954Z,99746.13
2023-03-06T04:41:58.613Z,99823.97
2023-03-06T04:44:25.253Z,99785.84
2023-03-06T04:46:51.921Z,99786.25
2023-03-06T04:49:18.427Z,99767.63
2023-03-06T04:51:45.140Z,99775.25
2023-03-06T04:54:12.049Z,99797.66
2023-03-06T04:56:39.034Z,99767.03
2023-03-06T04:59:05.578Z,99803.22
2023-03-06T05:01:32.625Z,99780.09
2023-03-06T05:03:59.147Z,99784.28
2023-03-06T05:06:26.335Z,99787.06
2023-03-06T05:08:53.005Z,99787.44
2023-03-06T05:11:19.581Z,99766.09
2023-03-06T05:13:46.147Z,99766.94
2023-03-06T05:16:12.848Z,99788.75
2023-03-06T05:18:39.705Z,99775.13
2023-03-06T05:21:06.704Z,99790.28
2023-03-06T05:23:38.565Z,99788.72
2023-03-06T05:26:11.332Z,99780.09
2023-03-06T05:28:38.515Z,99792.81
2023-03-06T05:31:05.719Z,99780.53
2023-03-06T05:33:33.654Z,99794.88
2023-03-06T05:36:00.235Z,99760.84
2023-03-06T05:38:27.316Z,99788.38
2023-03-06T05:40:54.088Z,99783.06
2023-03-06T05:43:22.206Z,99785.13
2023-03-06T05:45:50.528Z,99787.78
2023-03-06T05:48:17.130Z,99783.47
2023-03-06T05:50:43.849Z,99766.66
2023-03-06T05:53:10.676Z,99785.50
2023-03-06T05:55:37.603Z,99739.72
2023-03-06T05:58:04.156Z,99759.63
2023-03-06T06:00:30.993Z,99752.09
2023-03-06T06:03:00.606Z,99782.03
2023-03-06T06:05:27.315Z,99763.47
2023-03-06T06:07:53.906Z,99742.06
2023-03-06T06:10:20.618Z,99762.78
2023-03-06T06:12:47.187Z,99778.38
2023-03-06T06:15:15.352Z,99782.59
2023-03-06T06:17:42.544Z,99778.81
2023-03-06T06:20:09.698Z,99777.88
2023-03-06T06:22:38.010Z,99773.22
2023-03-06T06:25:07.243Z,99755.59
2023-03-06T06:27:33.804Z,99785.97
2023-03-06T06:30:00.404Z,99764.25
2023-03-06T06:32:27.001Z,99729.78
2023-03-06T06:34:53.943Z,99734.94
2023-03-06T06:37:20.735Z,99765.75
2023-03-06T06:39:47.738Z,99770.84
2023-03-06T06:42:31.475Z,99767.41
2023-03-06T06:45:00.855Z,99777.56
2023-03-06T06:47:27.469Z,99763.06
2023-03-06T06:49:55.641Z,99730.50
2023-03-06T06:52:23.470Z,99771.63
2023-03-06T06:54:50.308Z,99768.41
2023-03-06T06:57:17.350Z,99762.84
2023-03-06T06:59:43.975Z,99753.69
2023-03-06T07:02:12.740Z,99752.75
2023-03-06T07:04:52.394Z,99748.00
2023-03-06T07:07:24.751Z,99745.50
2023-03-06T07:09:52.075Z,99765.34
2023-03-06T07:12:18.798Z,99735.72
2023-03-06T07:14:45.423Z,99769.06
2023-03-06T07:17:12.026Z,99753.28
2023-03-06T07:19:39.587Z,99745.88
2023-03-06T07:22:07.625Z,99767.97
2023-03-06T07:24:34.420Z,99744.13
2023-03-06T07:27:00.938Z,99751.38
2023-03-06T07:29:27.535Z,99771.47
2023-03-06T07:31:54.094Z,99770.03
2023-03-06T07:34:20.674Z,99756.53
2023-03-06T07:36:47.242Z,99748.50
2023-03-06T07:39:13.847Z,99736.22
2023-03-06T07:41:40.414Z,99764.91
2023-03-06T07:44:07.044Z,99732.69
2023-03-06T07:46:33.657Z,99771.56
2023-03-06T07:49:00.367Z,99758.09
2023-03-06T07:51:27.244Z,99784.56
2023-03-06T07:53:54.071Z,99769.91
2023-03-06T07:56:20.874Z,99779.69
2023-03-06T07:58:47.694Z,99640.75
2023-03-06T08:01:19.876Z,99771.28
2023-03-06T08:03:47.090Z,99769.28
2023-03-06T08:06:35.102Z,99779.13
2023-03-06T08:09:02.194Z,99785.34
2023-03-06T08:11:30.474Z,99777.56
2023-03-06T08:13:58.029Z,99757.16
2023-03-06T08:16:26.697Z,99775.72
2023-03-06T08:18:54.401Z,99741.69
2023-03-06T08:21:23.675Z,99777.03
2023-03-06T08:23:50.637Z,99768.63
2023-03-06T08:26:23.978Z,99768.63
2023-03-06T08:28:54.560Z,99775.56
2023-03-06T08:31:27.315Z,99773.56
2023-03-06T08:33:54.911Z,99779.44
2023-03-06T08:36:21.940Z,99750.88
2023-03-06T08:38:48.465Z,99776.72
2023-03-06T08:41:15.247Z,99753.06
2023-03-06T08:43:41.877Z,99742.50
2023-03-06T08:46:09.632Z,99754.84
2023-03-06T08:48:36.235Z,99757.94
2023-03-06T08:51:02.768Z,99775.66
2023-03-06T08:53:42.188Z,99785.06
2023-03-06T08:56:20.854Z,99776.63
2023-03-06T08:58:48.505Z,99741.81
2023-03-06T09:01:21.116Z,99779.69
2023-03-06T09:03:48.597Z,99750.13
2023-03-06T09:06:15.255Z,99772.19
2023-03-06T09:08:43.870Z,99759.75
2023-03-06T09:11:11.881Z,99773.97
2023-03-06T09:13:38.692Z,99720.84
2023-03-06T09:16:05.558Z,99753.59
2023-03-06T09:18:32.053Z,99767.28
2023-03-06T09:20:58.560Z,99758.22
2023-03-06T09:23:25.095Z,99755.94
2023-03-06T09:25:55.897Z,99780.75
2023-03-06T09:28:23.071Z,99758.66
2023-03-06T09:30:50.324Z,99778.66
2023-03-06T09:33:17.438Z,99751.63
2023-03-06T09:35:55.828Z,99755.13
2023-03-06T09:38:25.316Z,99749.47
2023-03-06T09:40:57.766Z,99779.25
2023-03-06T09:43:29.385Z,99781.84
2023-03-06T09:45:57.655Z,99774.81
2023-03-06T09:49:13.961Z,99775.94
2023-03-06T09:52:07.518Z,99781.06
2023-03-06T09:54:44.038Z,99754.88
2023-03-06T09:57:22.263Z,99740.75
2023-03-06T09:59:51.820Z,99721.53
2023-03-06T10:02:36.716Z,99784.41
2023-03-06T10:05:06.704Z,99780.78
2023-03-06T10:07:47.222Z,99741.28
2023-03-06T10:10:19.928Z,99770.22
2023-03-06T10:13:03.269Z,99780.94
2023-03-06T10:15:36.024Z,99763.03
2023-03-06T10:18:03.869Z,99760.94
2023-03-06T10:20:54.904Z,99779.78
2023-03-06T10:23:37.314Z,99779.16
2023-03-06T10:26:17.138Z,99780.44
2023-03-06T10:29:21.001Z,99778.88
2023-03-06T10:31:54.813Z,99761.16
2023-03-06T10:34:23.493Z,99763.56
2023-03-06T10:36:50.568Z,99773.66
2023-03-06T10:39:22.098Z,99772.41
2023-03-06T10:41:49.334Z,99745.63
2023-03-06T10:44:15.952Z,99789.66
2023-03-06T10:46:44.753Z,99781.63
2023-03-06T10:49:35.652Z,99789.06
2023-03-06T10:52:14.324Z,99781.19
2023-03-06T10:54:43.225Z,99781.72
2023-03-06T10:57:20.240Z,99781.09
2023-03-06T10:59:53.720Z,99789.09
2023-03-06T11:02:29.382Z,99784.50
2023-03-06T11:04:57.049Z,99785.34
2023-03-06T11:07:34.581Z,99758.03
2023-03-06T11:10:05.579Z,99798.72
2023-03-06T11:12:36.602Z,99780.19
2023-03-06T11:15:17.413Z,99786.19
2023-03-06T11:18:23.596Z,99788.19
2023-03-06T11:20:55.033Z,99783.44
2023-03-06T11:23:36.753Z,99780.56
2023-03-06T11:26:15.348Z,99783.34
2023-03-06T11:29:03.654Z,99777.47
2023-03-06T11:32:02.526Z,99790.09
2023-03-06T11:34:51.180Z,99778.91
2023-03-06T11:37:25.972Z,99779.94
2023-03-06T11:39:59.444Z,99778.72
2023-03-06T11:42:34.584Z,99770.53
2023-03-06T11:45:26.029Z,99771.03
2023-03-06T11:48:08.081Z,99757.25
2023-03-06T11:50:37.667Z,99772.91
2023-03-06T11:53:05.965Z,99752.38
2023-03-06T11:55:35.458Z,99776.28
2023-03-06T11:58:38.899Z,99770.63
2023-03-06T12:01:25.824Z,99768.13
2023-03-06T12:04:17.142Z,99760.47
2023-03-06T12:07:01.897Z,99766.03
2023-03-06T12:09:47.369Z,99765.50
2023-03-06T12:12:37.732Z,99768.75
2023-03-06T12:15:04.208Z,99759.31
2023-03-06T12:17:56.067Z,99763.59
2023-03-06T12:20:44.106Z,99753.59
2023-03-06T12:23:16.808Z,99752.69
2023-03-06T12:25:49.014Z,99740.78
2023-03-06T12:28:24.705Z,99745.88
2023-03-06T12:30:58.452Z,99740.28
2023-03-06T12:33:43.252Z,99748.06
2023-03-06T12:36:28.868Z,99752.22
2023-03-06T12:39:34.033Z,99750.69
2023-03-06T12:42:26.540Z,99751.66
2023-03-06T12:44:58.690Z,99750.84
2023-03-06T12:47:27.973Z,99745.38
2023-03-06T12:50:38.152Z,99734.72
2023-03-06T12:53:07.524Z,99742.75
2023-03-06T12:55:42.571Z,99728.19
2023-03-06T12:58:31.038Z,99726.31
2023-03-06T13:01:20.004Z,99714.16
2023-03-06T13:03:58.755Z,99732.47
2023-03-06T13:06:36.632Z,99706.16
2023-03-06T13:09:12.209Z,99726.78
2023-03-06T13:12:03.771Z,99732.09
2023-03-06T13:14:34.355Z,99722.22
2023-03-06T13:17:20.524Z,99721.16
2023-03-06T13:19:48.209Z,99700.69
2023-03-06T13:22:35.303Z,99715.00
2023-03-06T13:25:30.669Z,99712.06
2023-03-06T13:27:57.140Z,99695.34
2023-03-06T13:30:24.166Z,99702.03
2023-03-06T13:32:52.836Z,99706.13
2023-03-06T13:35:34.576Z,99695.00
2023-03-06T13:38:01.296Z,99695.59
2023-03-06T13:40:36.431Z,99708.28
2023-03-06T13:43:08.959Z,99709.00
2023-03-06T13:45:43.306Z,99706.31
2023-03-06T13:48:43.131Z,99662.03
2023-03-06T13:51:19.736Z,99698.28
2023-03-06T13:54:17.447Z,99705.78
2023-03-06T13:57:11.577Z,99698.75
2023-03-06T14:00:08.199Z,99704.09
2023-03-06T14:02:54.752Z,99700.09
2023-03-06T14:05:22.141Z,99685.31
2023-03-06T14:08:02.981Z,99686.78
2023-03-06T14:10:31.938Z,99689.94
2023-03-06T14:13:03.308Z,99693.38
2023-03-06T14:15:37.476Z,99688.97
2023-03-06T14:18:07.355Z,99679.56
2023-03-06T14:20:39.869Z,99685.47
2023-03-06T14:23:21.653Z,99692.22
2023-03-06T14:25:54.559Z,99681.13
2023-03-06T14:28:23.975Z,99679.31
2023-03-06T14:30:52.299Z,99677.22
2023-03-06T14:33:37.321Z,99679.81
2023-03-06T14:36:08.195Z,99669.53
2023-03-06T14:38:38.382Z,99662.59
2023-03-06T14:41:06.036Z,99670.72
2023-03-06T14:43:32.913Z,99646.25
2023-03-06T14:46:06.423Z,99639.69
2023-03-06T14:48:45.353Z,99651.41
2023-03-06T14:51:16.341Z,99643.94
2023-03-06T14:53:44.730Z,99658.88
2023-03-06T14:56:16.692Z,99630.28
2023-03-06T14:58:59.803Z,99653.31
2023-03-06T15:01:35.384Z,99655.44
2023-03-06T15:04:02.652Z,99626.78
2023-03-06T15:06:41.271Z,99651.09
2023-03-06T15:09:24.482Z,99628.31
2023-03-06T15:11:55.200Z,99644.59
2023-03-06T15:14:35.946Z,99645.38
2023-03-06T15:17:18.110Z,99636.03
2023-03-06T15:19:46.986Z,99645.00
2023-03-06T15:22:39.367Z,99630.69
2023-03-06T15:25:24.363Z,99640.75
2023-03-06T15:28:20.458Z,99635.06
2023-03-06T15:31:04.405Z,99626.16
2023-03-06T15:33:30.997Z,99595.38
2023-03-06T15:36:02.530Z,99638.00
2023-03-06T15:38:44.689Z,99609.25
2023-03-06T15:41:27.799Z,99628.03
2023-03-06T15:43:54.769Z,99622.31
2023-03-06T15:46:21.334Z,99627.19
2023-03-06T15:48:56.598Z,99620.00
2023-03-06T15:51:24.858Z,99500.34
2023-03-06T15:53:53.084Z,99614.38
2023-03-06T15:56:43.867Z,99606.59
2023-03-06T15:59:16.925Z,99584.59
2023-03-06T16:01:43.679Z,99604.31
2023-03-06T16:04:10.270Z,99536.50
2023-03-06T16:06:37.694Z,99599.31
2023-03-06T16:09:05.886Z,99593.56
2023-03-06T16:11:43.331Z,99583.78
2023-03-06T16:14:18.913Z,99601.69
2023-03-06T16:16:46.137Z,99563.13
2023-03-06T16:19:25.311Z,99590.59
2023-03-06T16:21:52.680Z,99596.47
2023-03-06T16:24:19.379Z,99572.53
2023-03-06T16:26:47.916Z,99571.00
2023-03-06T16:29:18.953Z,99571.78
2023-03-06T16:31:45.593Z,99587.91
2023-03-06T16:34:12.114Z,99552.69
2023-03-06T16:36:38.870Z,99557.56
2023-03-06T16:39:06.517Z,99559.13
2023-03-06T16:41:33.104Z,99533.00
2023-03-06T16:43:59.746Z,99576.69
2023-03-06T16:46:33.318Z,99562.53
2023-03-06T16:49:02.649Z,99563.78
2023-03-06T16:51:29.697Z,99581.41
2023-03-06T16:53:56.315Z,99556.38
2023-03-06T16:56:22.955Z,99554.72
2023-03-06T16:58:49.914Z,99589.34
2023-03-06T17:01:18.736Z,99587.97
2023-03-06T17:03:45.808Z,99589.03
2023-03-06T17:06:23.255Z,99587.28
2023-03-06T17:08:50.919Z,99573.66
2023-03-06T17:11:17.968Z,99566.09
2023-03-06T17:13:44.564Z,99557.59
2023-03-06T17:16:16.521Z,99586.47
2023-03-06T17:18:44.781Z,99587.88
2023-03-06T17:21:12.506Z,99593.47
2023-03-06T17:23:39.081Z,99579.38
2023-03-06T17:26:07.147Z,99597.59
2023-03-06T17:28:37.259Z,99557.03
2023-03-06T17:31:14.921Z,99559.59
2023-03-06T17:33:41.890Z,99603.41
2023-03-06T17:36:09.548Z,99565.13
2023-03-06T17:38:36.354Z,99593.50
2023-03-06T17:41:05.040Z,99522.38
2023-03-06T17:43:32.258Z,99555.50
2023-03-06T17:46:12.001Z,99571.81
2023-03-06T17:48:39.399Z,99576.72
2023-03-06T17:51:06.734Z,99560.19
2023-03-06T17:53:33.377Z,99583.72
2023-03-06T17:56:00.141Z,99585.81
2023-03-06T17:58:27.347Z,99559.28
2023-03-06T18:00:54.288Z,99517.59
2023-03-06T18:03:21.170Z,99558.03
2023-03-06T18:05:47.710Z,99566.88
2023-03-06T18:08:14.447Z,99538.09
2023-03-06T18:10:41.638Z,99580.72
2023-03-06T18:13:10.460Z,99532.53
2023-03-06T18:15:40.496Z,99589.16
2023-03-06T18:18:08.512Z,99569.78
2023-03-06T18:20:40.944Z,99541.78
2023-03-06T18:23:07.473Z,99544.78
2023-03-06T18:25:34.115Z,99553.81
2023-03-06T18:28:00.849Z,99569.28
2023-03-06T18:30:27.451Z,99544.56
2023-03-06T18:32:54.669Z,99570.53
2023-03-06T18:35:21.776Z,99568.19
2023-03-06T18:37:48.377Z,99560.47
2023-03-06T18:40:15.346Z,99550.53
2023-03-06T18:42:42.033Z,99527.25
2023-03-06T18:45:09.216Z,99543.53
2023-03-06T18:47:35.925Z,99559.47
2023-03-06T18:50:05.589Z,99561.31
2023-03-06T18:52:33.856Z,99546.63
2023-03-06T18:55:00.404Z,99522.47
2023-03-06T18:57:29.277Z,99546.47
2023-03-06T18:59:56.849Z,99520.22
2023-03-06T19:02:23.736Z,99538.97
2023-03-06T19:04:50.356Z,99537.47
2023-03-06T19:07:17.102Z,99504.03
2023-03-06T19:09:44.454Z,99517.81
2023-03-06T19:12:11.652Z,99534.13
2023-03-06T19:14:38.333Z,99530.88
2023-03-06T19:17:04.996Z,99532.47
2023-03-06T19:19:31.521Z,99505.13
2023-03-06T19:21:58.399Z,99474.44
2023-03-06T19:24:25.110Z,99480.03
2023-03-06T19:26:52.357Z,99517.56
2023-03-06T19:29:18.925Z,99497.28
2023-03-06T19:31:45.503Z,99513.06
2023-03-06T19:34:12.044Z,99497.38
2023-03-06T19:36:40.708Z,99513.81
2023-03-06T19:39:08.154Z,99492.06
2023-03-06T19:41:35.130Z,99468.28
2023-03-06T19:44:03.318Z,99488.31
2023-03-06T19:46:30.102Z,99483.81
2023-03-06T19:48:59.269Z,99494.53
2023-03-06T19:51:26.712Z,99444.44
2023-03-06T19:53:53.479Z,99494.66
2023-03-06T19:56:22.080Z,99480.31
2023-03-06T19:58:49.066Z,99477.97
2023-03-06T20:01:18.346Z,99456.06
2023-03-06T20:03:45.171Z,99460.56
2023-03-06T20:06:15.467Z,99459.59
2023-03-06T20:08:42.839Z,99411.47
2023-03-06T20:11:20.524Z,99467.31
2023-03-06T20:13:48.022Z,99463.63
2023-03-06T20:16:15.541Z,99434.91
2023-03-06T20:18:42.486Z,99460.19
2023-03-06T20:21:09.458Z,99463.75
2023-03-06T20:23:36.135Z,99455.31
2023-03-06T20:26:05.946Z,99441.97
2023-03-06T20:28:33.491Z,99441.97
2023-03-06T20:31:06.190Z,99441.91
2023-03-06T20:33:32.880Z,99435.47
2023-03-06T20:35:59.705Z,99433.41
2023-03-06T20:38:26.615Z,99431.38
2023-03-06T20:40:57.825Z,99400.22
2023-03-06T20:43:24.371Z,99405.13
2023-03-06T20:46:02.655Z,99350.84
2023-03-06T20:48:29.651Z,99420.09
2023-03-06T20:51:04.623Z,99414.84
2023-03-06T20:53:31.847Z,99368.53
2023-03-06T20:55:58.632Z,99365.47
2023-03-06T20:58:28.609Z,99419.34
2023-03-06T21:00:55.278Z,99395.84
2023-03-06T21:03:22.119Z,99395.78
2023-03-06T21:05:48.853Z,99367.31
2023-03-06T21:08:16.301Z,99390.81
2023-03-06T21:10:45.093Z,99396.22
2023-03-06T21:13:11.695Z,99377.28
2023-03-06T21:15:39.903Z,99384.22
2023-03-06T21:18:06.815Z,99377.34
2023-03-06T21:20:34.058Z,99333.88
2023-03-06T21:23:01.772Z,99362.03
2023-03-06T21:25:29.124Z,99328.25
2023-03-06T21:27:56.389Z,99353.31
2023-03-06T21:30:23.072Z,99343.56
2023-03-06T21:32:51.551Z,99351.81
2023-03-06T21:35:19.344Z,99349.63
2023-03-06T21:37:46.584Z,99340.66
2023-03-06T21:40:14.347Z,99340.63
2023-03-06T21:42:41.356Z,99254.78
2023-03-06T21:45:08.573Z,99296.88
2023-03-06T21:47:38.899Z,99305.59
2023-03-06T21:50:07.178Z,99281.56
2023-03-06T21:52:33.755Z,99313.38
2023-03-06T21:55:00.515Z,99269.53
2023-03-06T21:57:27.192Z,99269.44
2023-03-06T21:59:53.752Z,99289.75
2023-03-06T22:02:20.706Z,99296.72
2023-03-06T22:04:52.465Z,99305.78
2023-03-06T22:07:20.160Z,99284.81
2023-03-06T22:09:47.247Z,99294.69
2023-03-06T22:12:13.931Z,99280.72
2023-03-06T22:14:41.414Z,99238.34
2023-03-06T22:17:07.988Z,99258.88
2023-03-06T22:19:34.621Z,99278.84
2023-03-06T22:22:01.287Z,99277.56
2023-03-06T22:24:28.303Z,99207.47
2023-03-06T22:26:55.024Z,99250.50
2023-03-06T22:29:21.517Z,99256.47
2023-03-06T22:31:48.062Z,99256.41
2023-03-06T22:34:14.651Z,99214.50
2023-03-06T22:36:41.300Z,99231.16
2023-03-06T22:39:07.885Z,99193.16
2023-03-06T22:41:34.493Z,99217.25
2023-03-06T22:44:02.451Z,99233.16
2023-03-06T22:46:30.481Z,99225.72
2023-03-06T22:48:57.914Z,99220.69
2023-03-06T22:51:25.588Z,99215.66
2023-03-06T22:53:52.250Z,99177.34
2023-03-06T22:56:20.688Z,99143.44
2023-03-06T22:58:47.629Z,99184.38
2023-03-06T23:01:15.565Z,99162.03
2023-03-06T23:03:44.508Z,99188.03
2023-03-06T23:06:15.544Z,99187.22
2023-03-06T23:08:42.804Z,99196.47
2023-03-06T23:11:15.122Z,99192.81
2023-03-06T23:13:44.613Z,99167.75
2023-03-06T23:16:11.875Z,99190.44
2023-03-06T23:18:39.309Z,99160.69
2023-03-06T23:21:11.269Z,99180.50
2023-03-06T23:23:38.210Z,99162.09
2023-03-06T23:26:09.823Z,99153.66
2023-03-06T23:28:36.532Z,99147.25
2023-03-06T23:31:15.110Z,99164.97
2023-03-06T23:33:41.828Z,99121.22
2023-03-06T23:36:11.645Z,99162.06
2023-03-06T23:38:38.745Z,99107.31
2023-03-06T23:41:07.689Z,99106.75
2023-03-06T23:43:34.923Z,99153.91
2023-03-06T23:46:01.615Z,99123.41
2023-03-06T23:48:29.100Z,99151.09
2023-03-06T23:50:56.433Z,99146.25
2023-03-06T23:53:23.261Z,99111.38
2023-03-06T23:55:50.924Z,99128.16
2023-03-06T23:58:20.738Z,99146.91
